Isle of Tiree, United Kingdom
Current Conditions -  °F | °C
As of 7:20 AM on Wednesday 26 Nov 2014 (Local Time) from EGPU Reporting Station
Rain Showers Rain Showers  
Wind Chill:   Ceiling: 3400
Heat Index:   Visibility: 6mi
Dew Point:   Wind: 18mph
Humidity: 87%   Direction: 180°S
Pressure: 29.94"   Gusts: NA
Location:  56.51°N, 6.81°W
Report Text: EGPU 260720Z AUTO 18016KT 9999 -SHRA FEW015/// BKN034/// 09/07 Q1014
Loading
Personal Weather Stations






























Interactive Weather Map New forecast layout! Learn more

10-Day Weather Forecast

Advertisements
Track Severe Weather on mobile